sensor_id;sensor_type;location;lat;lon;timestamp;P1;durP1;ratioP1;P2;durP2;ratioP2
14799;SDS011;7491;57.750;11.970;2024-03-02T00:01:29;83.88;;;35.97;;
14799;SDS011;7491;57.750;11.970;2024-03-02T00:03:55;81.68;;;33.17;;
14799;SDS011;7491;57.750;11.970;2024-03-02T00:06:22;79.07;;;34.10;;
14799;SDS011;7491;57.750;11.970;2024-03-02T00:08:49;76.82;;;33.03;;
14799;SDS011;7491;57.750;11.970;2024-03-02T00:11:17;78.85;;;34.10;;
14799;SDS011;7491;57.750;11.970;2024-03-02T00:13:44;75.65;;;33.20;;
14799;SDS011;7491;57.750;11.970;2024-03-02T00:16:12;78.57;;;33.72;;
14799;SDS011;7491;57.750;11.970;2024-03-02T00:18:40;77.22;;;32.10;;
14799;SDS011;7491;57.750;11.970;2024-03-02T00:21:07;83.40;;;35.28;;
14799;SDS011;7491;57.750;11.970;2024-03-02T00:23:36;79.20;;;34.95;;
14799;SDS011;7491;57.750;11.970;2024-03-02T00:26:06;74.95;;;33.28;;
14799;SDS011;7491;57.750;11.970;2024-03-02T00:28:54;77.45;;;31.75;;
14799;SDS011;7491;57.750;11.970;2024-03-02T00:31:22;77.72;;;33.28;;
14799;SDS011;7491;57.750;11.970;2024-03-02T00:33:51;78.63;;;32.70;;
14799;SDS011;7491;57.750;11.970;2024-03-02T00:36:22;77.85;;;31.98;;
14799;SDS011;7491;57.750;11.970;2024-03-02T00:38:51;81.57;;;32.83;;
14799;SDS011;7491;57.750;11.970;2024-03-02T00:41:21;80.03;;;33.70;;
14799;SDS011;7491;57.750;11.970;2024-03-02T00:43:52;78.60;;;34.17;;
14799;SDS011;7491;57.750;11.970;2024-03-02T00:46:23;79.25;;;33.95;;
14799;SDS011;7491;57.750;11.970;2024-03-02T00:48:55;77.47;;;33.42;;
14799;SDS011;7491;57.750;11.970;2024-03-02T00:51:22;75.68;;;31.48;;
14799;SDS011;7491;57.750;11.970;2024-03-02T00:53:50;79.57;;;33.25;;
14799;SDS011;7491;57.750;11.970;2024-03-02T00:56:17;81.13;;;33.10;;
14799;SDS011;7491;57.750;11.970;2024-03-02T00:58:44;74.53;;;32.97;;
14799;SDS011;7491;57.750;11.970;2024-03-02T01:01:11;83.90;;;33.67;;
14799;SDS011;7491;57.750;11.970;2024-03-02T01:03:38;79.60;;;33.22;;
14799;SDS011;7491;57.750;11.970;2024-03-02T01:06:08;83.55;;;34.28;;
14799;SDS011;7491;57.750;11.970;2024-03-02T01:08:35;72.68;;;32.97;;
14799;SDS011;7491;57.750;11.970;2024-03-02T01:11:02;85.93;;;33.92;;
14799;SDS011;7491;57.750;11.970;2024-03-02T01:13:29;84.28;;;33.50;;
14799;SDS011;7491;57.750;11.970;2024-03-02T01:15:56;80.65;;;32.25;;
14799;SDS011;7491;57.750;11.970;2024-03-02T01:18:23;75.53;;;33.05;;
14799;SDS011;7491;57.750;11.970;2024-03-02T01:20:50;69.30;;;30.58;;
14799;SDS011;7491;57.750;11.970;2024-03-02T01:23:19;72.57;;;31.58;;
14799;SDS011;7491;57.750;11.970;2024-03-02T01:25:46;73.13;;;31.23;;
14799;SDS011;7491;57.750;11.970;2024-03-02T01:28:13;77.28;;;30.98;;
14799;SDS011;7491;57.750;11.970;2024-03-02T01:30:39;79.70;;;34.42;;
14799;SDS011;7491;57.750;11.970;2024-03-02T01:33:06;83.00;;;30.88;;
14799;SDS011;7491;57.750;11.970;2024-03-02T01:35:33;75.32;;;33.70;;
14799;SDS011;7491;57.750;11.970;2024-03-02T01:38:00;73.03;;;31.02;;
14799;SDS011;7491;57.750;11.970;2024-03-02T01:40:29;72.03;;;31.98;;
14799;SDS011;7491;57.750;11.970;2024-03-02T01:42:56;68.60;;;31.80;;
14799;SDS011;7491;57.750;11.970;2024-03-02T01:45:23;71.43;;;31.23;;
14799;SDS011;7491;57.750;11.970;2024-03-02T01:47:50;79.13;;;34.08;;
14799;SDS011;7491;57.750;11.970;2024-03-02T01:50:17;84.78;;;34.72;;
14799;SDS011;7491;57.750;11.970;2024-03-02T01:52:51;83.65;;;38.58;;
14799;SDS011;7491;57.750;11.970;2024-03-02T01:55:18;74.75;;;34.15;;
14799;SDS011;7491;57.750;11.970;2024-03-02T01:57:49;79.95;;;33.20;;
14799;SDS011;7491;57.750;11.970;2024-03-02T02:00:17;76.35;;;30.45;;
14799;SDS011;7491;57.750;11.970;2024-03-02T02:02:44;77.95;;;31.80;;
14799;SDS011;7491;57.750;11.970;2024-03-02T02:05:11;74.13;;;31.02;;
14799;SDS011;7491;57.750;11.970;2024-03-02T02:07:40;74.28;;;32.30;;
14799;SDS011;7491;57.750;11.970;2024-03-02T02:10:07;77.10;;;32.42;;
14799;SDS011;7491;57.750;11.970;2024-03-02T02:12:34;69.97;;;32.20;;
14799;SDS011;7491;57.750;11.970;2024-03-02T02:15:03;76.38;;;31.67;;
14799;SDS011;7491;57.750;11.970;2024-03-02T02:17:31;77.75;;;32.45;;
14799;SDS011;7491;57.750;11.970;2024-03-02T02:19:57;71.82;;;30.63;;
14799;SDS011;7491;57.750;11.970;2024-03-02T02:22:26;68.85;;;30.13;;
14799;SDS011;7491;57.750;11.970;2024-03-02T02:24:52;65.80;;;30.10;;
14799;SDS011;7491;57.750;11.970;2024-03-02T02:27:19;73.78;;;28.63;;
14799;SDS011;7491;57.750;11.970;2024-03-02T02:29:46;67.53;;;28.30;;
14799;SDS011;7491;57.750;11.970;2024-03-02T02:32:13;70.85;;;28.52;;
14799;SDS011;7491;57.750;11.970;2024-03-02T02:34:40;56.40;;;26.77;;
14799;SDS011;7491;57.750;11.970;2024-03-02T02:37:07;70.57;;;28.85;;
14799;SDS011;7491;57.750;11.970;2024-03-02T02:39:36;62.42;;;25.92;;
14799;SDS011;7491;57.750;11.970;2024-03-02T02:42:02;68.70;;;28.30;;
14799;SDS011;7491;57.750;11.970;2024-03-02T02:44:29;71.38;;;30.40;;
14799;SDS011;7491;57.750;11.970;2024-03-02T02:46:56;67.40;;;29.42;;
14799;SDS011;7491;57.750;11.970;2024-03-02T02:49:23;69.18;;;29.48;;
14799;SDS011;7491;57.750;11.970;2024-03-02T02:51:50;73.07;;;31.05;;
14799;SDS011;7491;57.750;11.970;2024-03-02T02:54:16;64.93;;;29.65;;
14799;SDS011;7491;57.750;11.970;2024-03-02T02:56:44;68.07;;;28.67;;
14799;SDS011;7491;57.750;11.970;2024-03-02T02:59:11;67.82;;;28.27;;
14799;SDS011;7491;57.750;11.970;2024-03-02T03:01:38;73.25;;;31.58;;
14799;SDS011;7491;57.750;11.970;2024-03-02T03:04:04;76.43;;;31.27;;
14799;SDS011;7491;57.750;11.970;2024-03-02T03:06:31;66.30;;;30.05;;
14799;SDS011;7491;57.750;11.970;2024-03-02T03:08:58;74.10;;;32.72;;
14799;SDS011;7491;57.750;11.970;2024-03-02T03:11:25;69.13;;;30.67;;
14799;SDS011;7491;57.750;11.970;2024-03-02T03:13:53;76.60;;;30.70;;
14799;SDS011;7491;57.750;11.970;2024-03-02T03:16:20;66.97;;;30.40;;
14799;SDS011;7491;57.750;11.970;2024-03-02T03:18:47;66.35;;;29.65;;
14799;SDS011;7491;57.750;11.970;2024-03-02T03:21:16;65.55;;;28.25;;
14799;SDS011;7491;57.750;11.970;2024-03-02T03:23:43;69.35;;;31.60;;
14799;SDS011;7491;57.750;11.970;2024-03-02T03:26:11;68.90;;;30.70;;
14799;SDS011;7491;57.750;11.970;2024-03-02T03:28:38;69.07;;;30.23;;
14799;SDS011;7491;57.750;11.970;2024-03-02T03:31:06;72.75;;;30.10;;
14799;SDS011;7491;57.750;11.970;2024-03-02T03:33:33;69.50;;;29.30;;
14799;SDS011;7491;57.750;11.970;2024-03-02T03:36:00;69.43;;;28.48;;
14799;SDS011;7491;57.750;11.970;2024-03-02T03:38:28;71.85;;;31.08;;
14799;SDS011;7491;57.750;11.970;2024-03-02T03:40:55;78.05;;;31.75;;
14799;SDS011;7491;57.750;11.970;2024-03-02T03:43:21;77.20;;;30.90;;
14799;SDS011;7491;57.750;11.970;2024-03-02T03:45:48;68.95;;;29.60;;
14799;SDS011;7491;57.750;11.970;2024-03-02T03:48:16;66.25;;;29.80;;
14799;SDS011;7491;57.750;11.970;2024-03-02T03:50:43;72.72;;;31.52;;
14799;SDS011;7491;57.750;11.970;2024-03-02T03:53:10;65.97;;;27.90;;
14799;SDS011;7491;57.750;11.970;2024-03-02T03:55:37;81.90;;;38.08;;
14799;SDS011;7491;57.750;11.970;2024-03-02T03:58:03;72.90;;;31.55;;
14799;SDS011;7491;57.750;11.970;2024-03-02T04:00:30;71.60;;;29.33;;
14799;SDS011;7491;57.750;11.970;2024-03-02T04:02:57;73.15;;;30.77;;
14799;SDS011;7491;57.750;11.970;2024-03-02T04:05:25;62.75;;;28.55;;
14799;SDS011;7491;57.750;11.970;2024-03-02T04:07:52;56.58;;;27.67;;
14799;SDS011;7491;57.750;11.970;2024-03-02T04:10:19;67.40;;;30.13;;
14799;SDS011;7491;57.750;11.970;2024-03-02T04:12:46;68.97;;;30.40;;
14799;SDS011;7491;57.750;11.970;2024-03-02T04:15:12;65.97;;;28.23;;
14799;SDS011;7491;57.750;11.970;2024-03-02T04:17:39;71.88;;;29.48;;
14799;SDS011;7491;57.750;11.970;2024-03-02T04:20:06;76.95;;;31.58;;
14799;SDS011;7491;57.750;11.970;2024-03-02T04:22:35;63.22;;;29.38;;
14799;SDS011;7491;57.750;11.970;2024-03-02T04:25:01;67.75;;;28.77;;
14799;SDS011;7491;57.750;11.970;2024-03-02T04:27:29;64.25;;;29.30;;
14799;SDS011;7491;57.750;11.970;2024-03-02T04:29:56;68.22;;;29.45;;
14799;SDS011;7491;57.750;11.970;2024-03-02T04:32:25;63.08;;;28.08;;
14799;SDS011;7491;57.750;11.970;2024-03-02T04:34:51;62.55;;;27.25;;
14799;SDS011;7491;57.750;11.970;2024-03-02T04:37:18;61.05;;;25.42;;
14799;SDS011;7491;57.750;11.970;2024-03-02T04:39:46;60.63;;;28.85;;
14799;SDS011;7491;57.750;11.970;2024-03-02T04:42:13;57.42;;;24.45;;
14799;SDS011;7491;57.750;11.970;2024-03-02T04:44:40;64.47;;;27.13;;
14799;SDS011;7491;57.750;11.970;2024-03-02T04:47:06;57.05;;;26.00;;
14799;SDS011;7491;57.750;11.970;2024-03-02T04:49:33;58.85;;;25.80;;
14799;SDS011;7491;57.750;11.970;2024-03-02T04:51:59;52.67;;;25.77;;
14799;SDS011;7491;57.750;11.970;2024-03-02T04:54:27;59.22;;;27.10;;
14799;SDS011;7491;57.750;11.970;2024-03-02T04:56:55;68.88;;;27.27;;
14799;SDS011;7491;57.750;11.970;2024-03-02T04:59:21;55.13;;;24.38;;
14799;SDS011;7491;57.750;11.970;2024-03-02T05:01:48;56.97;;;25.52;;
14799;SDS011;7491;57.750;11.970;2024-03-02T05:04:15;54.28;;;25.75;;
14799;SDS011;7491;57.750;11.970;2024-03-02T05:06:41;55.22;;;23.45;;
14799;SDS011;7491;57.750;11.970;2024-03-02T05:09:08;56.25;;;26.88;;
14799;SDS011;7491;57.750;11.970;2024-03-02T05:11:35;52.15;;;23.35;;
14799;SDS011;7491;57.750;11.970;2024-03-02T05:14:36;56.88;;;26.35;;
14799;SDS011;7491;57.750;11.970;2024-03-02T05:17:03;52.78;;;24.67;;
14799;SDS011;7491;57.750;11.970;2024-03-02T05:19:30;58.92;;;26.35;;
14799;SDS011;7491;57.750;11.970;2024-03-02T05:21:57;58.22;;;27.27;;
14799;SDS011;7491;57.750;11.970;2024-03-02T05:24:24;57.63;;;25.92;;
14799;SDS011;7491;57.750;11.970;2024-03-02T05:26:52;51.60;;;22.67;;
14799;SDS011;7491;57.750;11.970;2024-03-02T05:29:19;54.20;;;23.08;;
14799;SDS011;7491;57.750;11.970;2024-03-02T05:31:47;46.35;;;24.20;;
14799;SDS011;7491;57.750;11.970;2024-03-02T05:34:13;46.58;;;22.45;;
14799;SDS011;7491;57.750;11.970;2024-03-02T05:36:40;49.40;;;23.90;;
14799;SDS011;7491;57.750;11.970;2024-03-02T05:39:07;54.97;;;25.30;;
14799;SDS011;7491;57.750;11.970;2024-03-02T05:41:35;51.20;;;25.27;;
14799;SDS011;7491;57.750;11.970;2024-03-02T05:44:03;55.10;;;27.70;;
14799;SDS011;7491;57.750;11.970;2024-03-02T05:46:30;56.80;;;25.45;;
14799;SDS011;7491;57.750;11.970;2024-03-02T05:48:58;55.97;;;25.00;;
14799;SDS011;7491;57.750;11.970;2024-03-02T05:51:25;53.72;;;24.40;;
14799;SDS011;7491;57.750;11.970;2024-03-02T05:53:51;50.38;;;24.83;;
14799;SDS011;7491;57.750;11.970;2024-03-02T05:56:18;55.92;;;25.40;;
14799;SDS011;7491;57.750;11.970;2024-03-02T05:58:45;54.53;;;23.25;;
14799;SDS011;7491;57.750;11.970;2024-03-02T06:01:23;56.42;;;25.33;;
14799;SDS011;7491;57.750;11.970;2024-03-02T06:03:53;55.25;;;25.52;;
14799;SDS011;7491;57.750;11.970;2024-03-02T06:06:21;55.13;;;23.95;;
14799;SDS011;7491;57.750;11.970;2024-03-02T06:08:48;62.83;;;27.65;;
14799;SDS011;7491;57.750;11.970;2024-03-02T06:11:15;57.25;;;26.45;;
14799;SDS011;7491;57.750;11.970;2024-03-02T06:13:42;56.10;;;25.77;;
14799;SDS011;7491;57.750;11.970;2024-03-02T06:16:08;52.30;;;24.20;;
14799;SDS011;7491;57.750;11.970;2024-03-02T06:18:35;56.03;;;26.55;;
14799;SDS011;7491;57.750;11.970;2024-03-02T06:21:02;62.72;;;27.35;;
14799;SDS011;7491;57.750;11.970;2024-03-02T06:23:30;60.10;;;27.83;;
14799;SDS011;7491;57.750;11.970;2024-03-02T06:25:57;56.13;;;26.67;;
14799;SDS011;7491;57.750;11.970;2024-03-02T06:28:24;53.85;;;25.10;;
14799;SDS011;7491;57.750;11.970;2024-03-02T06:30:50;61.65;;;26.58;;
14799;SDS011;7491;57.750;11.970;2024-03-02T06:33:17;56.85;;;27.17;;
14799;SDS011;7491;57.750;11.970;2024-03-02T06:35:44;68.15;;;25.80;;
14799;SDS011;7491;57.750;11.970;2024-03-02T06:38:10;58.85;;;26.58;;
14799;SDS011;7491;57.750;11.970;2024-03-02T06:40:38;58.75;;;25.05;;
14799;SDS011;7491;57.750;11.970;2024-03-02T06:43:05;52.00;;;24.85;;
14799;SDS011;7491;57.750;11.970;2024-03-02T06:45:32;56.53;;;25.30;;
14799;SDS011;7491;57.750;11.970;2024-03-02T06:47:59;68.45;;;35.55;;
14799;SDS011;7491;57.750;11.970;2024-03-02T06:50:26;64.35;;;29.55;;
14799;SDS011;7491;57.750;11.970;2024-03-02T06:52:53;58.53;;;27.17;;
14799;SDS011;7491;57.750;11.970;2024-03-02T06:55:21;56.42;;;27.98;;
14799;SDS011;7491;57.750;11.970;2024-03-02T06:57:50;57.67;;;27.60;;
14799;SDS011;7491;57.750;11.970;2024-03-02T07:00:18;63.40;;;27.88;;
14799;SDS011;7491;57.750;11.970;2024-03-02T07:02:46;64.50;;;29.30;;
14799;SDS011;7491;57.750;11.970;2024-03-02T07:05:13;62.25;;;29.83;;
14799;SDS011;7491;57.750;11.970;2024-03-02T07:07:39;62.45;;;26.48;;
14799;SDS011;7491;57.750;11.970;2024-03-02T07:10:07;55.65;;;26.98;;
14799;SDS011;7491;57.750;11.970;2024-03-02T07:12:34;62.35;;;28.27;;
14799;SDS011;7491;57.750;11.970;2024-03-02T07:15:02;58.58;;;27.83;;
14799;SDS011;7491;57.750;11.970;2024-03-02T07:17:50;59.10;;;26.42;;
14799;SDS011;7491;57.750;11.970;2024-03-02T07:20:17;56.78;;;27.27;;
14799;SDS011;7491;57.750;11.970;2024-03-02T07:22:46;71.80;;;28.98;;
14799;SDS011;7491;57.750;11.970;2024-03-02T07:25:13;62.22;;;27.63;;
14799;SDS011;7491;57.750;11.970;2024-03-02T07:27:40;63.20;;;28.95;;
14799;SDS011;7491;57.750;11.970;2024-03-02T07:30:13;61.67;;;28.95;;
14799;SDS011;7491;57.750;11.970;2024-03-02T07:32:41;59.53;;;27.52;;
14799;SDS011;7491;57.750;11.970;2024-03-02T07:35:10;63.03;;;30.15;;
14799;SDS011;7491;57.750;11.970;2024-03-02T07:37:38;67.07;;;27.58;;
14799;SDS011;7491;57.750;11.970;2024-03-02T07:40:05;62.00;;;28.88;;
14799;SDS011;7491;57.750;11.970;2024-03-02T07:42:36;58.88;;;28.13;;
14799;SDS011;7491;57.750;11.970;2024-03-02T07:45:04;74.40;;;30.42;;
14799;SDS011;7491;57.750;11.970;2024-03-02T07:47:32;66.22;;;30.00;;
14799;SDS011;7491;57.750;11.970;2024-03-02T07:50:00;62.42;;;27.90;;
14799;SDS011;7491;57.750;11.970;2024-03-02T07:52:27;58.70;;;27.25;;
14799;SDS011;7491;57.750;11.970;2024-03-02T07:54:53;70.50;;;28.98;;
14799;SDS011;7491;57.750;11.970;2024-03-02T07:57:20;62.38;;;26.35;;
14799;SDS011;7491;57.750;11.970;2024-03-02T07:59:47;65.80;;;30.33;;
14799;SDS011;7491;57.750;11.970;2024-03-02T08:02:15;67.00;;;29.45;;
14799;SDS011;7491;57.750;11.970;2024-03-02T08:04:43;61.60;;;26.73;;
14799;SDS011;7491;57.750;11.970;2024-03-02T08:07:11;64.75;;;29.95;;
14799;SDS011;7491;57.750;11.970;2024-03-02T08:09:38;63.53;;;30.25;;
14799;SDS011;7491;57.750;11.970;2024-03-02T08:12:06;64.15;;;31.00;;
14799;SDS011;7491;57.750;11.970;2024-03-02T08:14:33;65.95;;;30.00;;
14799;SDS011;7491;57.750;11.970;2024-03-02T08:17:03;68.68;;;30.80;;
14799;SDS011;7491;57.750;11.970;2024-03-02T08:19:34;62.90;;;27.48;;
14799;SDS011;7491;57.750;11.970;2024-03-02T08:22:03;59.42;;;26.17;;
14799;SDS011;7491;57.750;11.970;2024-03-02T08:24:30;68.97;;;29.65;;
14799;SDS011;7491;57.750;11.970;2024-03-02T08:26:58;65.80;;;29.50;;
14799;SDS011;7491;57.750;11.970;2024-03-02T08:29:25;56.92;;;28.17;;
14799;SDS011;7491;57.750;11.970;2024-03-02T08:32:01;60.35;;;28.58;;
14799;SDS011;7491;57.750;11.970;2024-03-02T08:34:29;59.03;;;28.60;;
14799;SDS011;7491;57.750;11.970;2024-03-02T08:36:56;61.47;;;28.35;;
14799;SDS011;7491;57.750;11.970;2024-03-02T08:39:24;55.80;;;27.27;;
14799;SDS011;7491;57.750;11.970;2024-03-02T08:41:51;68.07;;;31.05;;
14799;SDS011;7491;57.750;11.970;2024-03-02T08:44:25;58.78;;;28.15;;
14799;SDS011;7491;57.750;11.970;2024-03-02T08:47:22;51.38;;;26.92;;
14799;SDS011;7491;57.750;11.970;2024-03-02T08:50:26;60.53;;;28.77;;
14799;SDS011;7491;57.750;11.970;2024-03-02T08:53:03;58.65;;;28.15;;
14799;SDS011;7491;57.750;11.970;2024-03-02T08:55:58;60.42;;;29.35;;
14799;SDS011;7491;57.750;11.970;2024-03-02T08:58:27;63.95;;;30.38;;
14799;SDS011;7491;57.750;11.970;2024-03-02T09:00:54;59.08;;;30.33;;
14799;SDS011;7491;57.750;11.970;2024-03-02T09:03:24;61.22;;;31.65;;
14799;SDS011;7491;57.750;11.970;2024-03-02T09:05:54;63.70;;;32.30;;
14799;SDS011;7491;57.750;11.970;2024-03-02T09:08:21;57.70;;;29.25;;
14799;SDS011;7491;57.750;11.970;2024-03-02T09:10:48;56.30;;;31.50;;
14799;SDS011;7491;57.750;11.970;2024-03-02T09:13:23;69.43;;;33.03;;
14799;SDS011;7491;57.750;11.970;2024-03-02T09:15:55;67.32;;;32.60;;
14799;SDS011;7491;57.750;11.970;2024-03-02T09:18:24;72.13;;;33.78;;
14799;SDS011;7491;57.750;11.970;2024-03-02T09:20:51;55.83;;;30.35;;
14799;SDS011;7491;57.750;11.970;2024-03-02T09:23:18;67.57;;;30.73;;
14799;SDS011;7491;57.750;11.970;2024-03-02T09:25:47;66.97;;;29.88;;
14799;SDS011;7491;57.750;11.970;2024-03-02T09:28:15;67.38;;;31.25;;
14799;SDS011;7491;57.750;11.970;2024-03-02T09:30:43;61.08;;;34.20;;
14799;SDS011;7491;57.750;11.970;2024-03-02T09:33:10;57.60;;;29.27;;
14799;SDS011;7491;57.750;11.970;2024-03-02T09:35:39;60.75;;;33.42;;
14799;SDS011;7491;57.750;11.970;2024-03-02T09:38:09;61.30;;;32.85;;
14799;SDS011;7491;57.750;11.970;2024-03-02T09:40:36;63.67;;;34.28;;
14799;SDS011;7491;57.750;11.970;2024-03-02T09:43:03;61.55;;;32.05;;
14799;SDS011;7491;57.750;11.970;2024-03-02T09:45:30;62.92;;;33.65;;
14799;SDS011;7491;57.750;11.970;2024-03-02T09:47:58;60.53;;;33.78;;
14799;SDS011;7491;57.750;11.970;2024-03-02T09:50:26;54.53;;;31.55;;
14799;SDS011;7491;57.750;11.970;2024-03-02T09:52:52;65.50;;;34.65;;
14799;SDS011;7491;57.750;11.970;2024-03-02T09:55:19;66.20;;;34.17;;
14799;SDS011;7491;57.750;11.970;2024-03-02T09:57:47;71.03;;;35.50;;
14799;SDS011;7491;57.750;11.970;2024-03-02T10:00:15;69.47;;;36.15;;
14799;SDS011;7491;57.750;11.970;2024-03-02T10:02:42;66.05;;;33.35;;
14799;SDS011;7491;57.750;11.970;2024-03-02T10:05:10;68.35;;;37.42;;
14799;SDS011;7491;57.750;11.970;2024-03-02T10:07:37;61.50;;;34.83;;
14799;SDS011;7491;57.750;11.970;2024-03-02T10:10:12;75.28;;;35.80;;
14799;SDS011;7491;57.750;11.970;2024-03-02T10:12:40;60.33;;;34.10;;
14799;SDS011;7491;57.750;11.970;2024-03-02T10:15:07;68.80;;;36.92;;
14799;SDS011;7491;57.750;11.970;2024-03-02T10:17:34;57.15;;;35.05;;
14799;SDS011;7491;57.750;11.970;2024-03-02T10:20:13;64.25;;;34.63;;
14799;SDS011;7491;57.750;11.970;2024-03-02T10:22:48;63.10;;;34.85;;
14799;SDS011;7491;57.750;11.970;2024-03-02T10:25:27;66.03;;;35.00;;
14799;SDS011;7491;57.750;11.970;2024-03-02T10:27:56;67.68;;;35.60;;
14799;SDS011;7491;57.750;11.970;2024-03-02T10:30:23;69.30;;;36.20;;
14799;SDS011;7491;57.750;11.970;2024-03-02T10:32:50;62.70;;;35.03;;
14799;SDS011;7491;57.750;11.970;2024-03-02T10:35:20;65.78;;;34.97;;
14799;SDS011;7491;57.750;11.970;2024-03-02T10:37:48;66.85;;;36.83;;
14799;SDS011;7491;57.750;11.970;2024-03-02T10:40:15;67.45;;;35.47;;
14799;SDS011;7491;57.750;11.970;2024-03-02T10:42:41;67.07;;;37.45;;
14799;SDS011;7491;57.750;11.970;2024-03-02T10:45:09;68.35;;;36.78;;
14799;SDS011;7491;57.750;11.970;2024-03-02T10:47:36;63.88;;;35.15;;
14799;SDS011;7491;57.750;11.970;2024-03-02T10:50:04;64.70;;;35.65;;
14799;SDS011;7491;57.750;11.970;2024-03-02T10:52:34;74.20;;;45.97;;
14799;SDS011;7491;57.750;11.970;2024-03-02T10:55:01;62.63;;;38.15;;
14799;SDS011;7491;57.750;11.970;2024-03-02T10:57:32;63.72;;;37.92;;
14799;SDS011;7491;57.750;11.970;2024-03-02T11:00:07;63.55;;;34.75;;
14799;SDS011;7491;57.750;11.970;2024-03-02T11:02:40;61.40;;;34.63;;
14799;SDS011;7491;57.750;11.970;2024-03-02T11:05:13;62.00;;;35.65;;
14799;SDS011;7491;57.750;11.970;2024-03-02T11:07:55;57.67;;;32.08;;
14799;SDS011;7491;57.750;11.970;2024-03-02T11:10:26;62.08;;;34.88;;
14799;SDS011;7491;57.750;11.970;2024-03-02T11:12:56;62.30;;;35.35;;
14799;SDS011;7491;57.750;11.970;2024-03-02T11:15:27;55.05;;;32.10;;
14799;SDS011;7491;57.750;11.970;2024-03-02T11:17:54;55.72;;;31.23;;
14799;SDS011;7491;57.750;11.970;2024-03-02T11:20:22;58.83;;;32.88;;
14799;SDS011;7491;57.750;11.970;2024-03-02T11:22:49;56.05;;;32.85;;
14799;SDS011;7491;57.750;11.970;2024-03-02T11:25:24;56.88;;;31.67;;
14799;SDS011;7491;57.750;11.970;2024-03-02T11:28:02;54.60;;;32.10;;
14799;SDS011;7491;57.750;11.970;2024-03-02T11:33:16;50.08;;;29.90;;
14799;SDS011;7491;57.750;11.970;2024-03-02T11:35:49;51.15;;;29.77;;
14799;SDS011;7491;57.750;11.970;2024-03-02T11:38:17;50.22;;;30.05;;
14799;SDS011;7491;57.750;11.970;2024-03-02T11:40:45;45.72;;;27.38;;
14799;SDS011;7491;57.750;11.970;2024-03-02T11:43:13;47.72;;;29.63;;
14799;SDS011;7491;57.750;11.970;2024-03-02T11:45:41;44.80;;;29.05;;
14799;SDS011;7491;57.750;11.970;2024-03-02T11:48:09;47.35;;;29.48;;
14799;SDS011;7491;57.750;11.970;2024-03-02T11:50:40;45.03;;;28.13;;
14799;SDS011;7491;57.750;11.970;2024-03-02T11:53:08;41.28;;;26.80;;
14799;SDS011;7491;57.750;11.970;2024-03-02T11:55:37;42.03;;;25.42;;
14799;SDS011;7491;57.750;11.970;2024-03-02T11:58:07;42.13;;;25.23;;
14799;SDS011;7491;57.750;11.970;2024-03-02T12:00:34;38.13;;;24.35;;
14799;SDS011;7491;57.750;11.970;2024-03-02T12:03:01;35.53;;;23.73;;
14799;SDS011;7491;57.750;11.970;2024-03-02T12:05:28;40.63;;;29.45;;
14799;SDS011;7491;57.750;11.970;2024-03-02T12:07:56;34.17;;;23.90;;
14799;SDS011;7491;57.750;11.970;2024-03-02T12:10:23;34.80;;;23.17;;
14799;SDS011;7491;57.750;11.970;2024-03-02T12:12:55;31.10;;;19.73;;
14799;SDS011;7491;57.750;11.970;2024-03-02T12:15:24;27.30;;;19.23;;
14799;SDS011;7491;57.750;11.970;2024-03-02T12:17:55;29.40;;;19.85;;
14799;SDS011;7491;57.750;11.970;2024-03-02T12:20:22;26.65;;;18.38;;
14799;SDS011;7491;57.750;11.970;2024-03-02T12:22:49;26.63;;;18.30;;
14799;SDS011;7491;57.750;11.970;2024-03-02T12:25:18;23.77;;;17.58;;
14799;SDS011;7491;57.750;11.970;2024-03-02T12:27:45;21.88;;;15.98;;
14799;SDS011;7491;57.750;11.970;2024-03-02T12:30:12;22.88;;;16.27;;
14799;SDS011;7491;57.750;11.970;2024-03-02T12:32:41;19.98;;;15.68;;
14799;SDS011;7491;57.750;11.970;2024-03-02T12:35:08;21.58;;;16.08;;
14799;SDS011;7491;57.750;11.970;2024-03-02T12:37:43;19.70;;;15.25;;
14799;SDS011;7491;57.750;11.970;2024-03-02T12:40:11;16.55;;;12.43;;
14799;SDS011;7491;57.750;11.970;2024-03-02T12:42:38;20.20;;;14.80;;
14799;SDS011;7491;57.750;11.970;2024-03-02T12:45:05;17.45;;;12.85;;
14799;SDS011;7491;57.750;11.970;2024-03-02T12:47:33;18.23;;;14.20;;
14799;SDS011;7491;57.750;11.970;2024-03-02T12:50:01;17.00;;;12.95;;
14799;SDS011;7491;57.750;11.970;2024-03-02T12:52:29;19.25;;;13.95;;
14799;SDS011;7491;57.750;11.970;2024-03-02T12:54:57;18.75;;;13.65;;
14799;SDS011;7491;57.750;11.970;2024-03-02T12:57:25;18.73;;;14.82;;
14799;SDS011;7491;57.750;11.970;2024-03-02T12:59:52;16.27;;;13.57;;
14799;SDS011;7491;57.750;11.970;2024-03-02T13:02:22;17.63;;;13.75;;
14799;SDS011;7491;57.750;11.970;2024-03-02T13:04:52;15.80;;;12.20;;
14799;SDS011;7491;57.750;11.970;2024-03-02T13:07:20;15.82;;;12.75;;
14799;SDS011;7491;57.750;11.970;2024-03-02T13:09:47;15.55;;;11.02;;
14799;SDS011;7491;57.750;11.970;2024-03-02T13:12:20;12.80;;;11.02;;
14799;SDS011;7491;57.750;11.970;2024-03-02T13:14:49;13.23;;;11.50;;
14799;SDS011;7491;57.750;11.970;2024-03-02T13:17:22;14.80;;;11.45;;
14799;SDS011;7491;57.750;11.970;2024-03-02T13:19:50;16.83;;;11.35;;
14799;SDS011;7491;57.750;11.970;2024-03-02T13:22:18;11.40;;;10.20;;
14799;SDS011;7491;57.750;11.970;2024-03-02T13:24:46;12.95;;;10.60;;
14799;SDS011;7491;57.750;11.970;2024-03-02T13:27:13;12.02;;;10.82;;
14799;SDS011;7491;57.750;11.970;2024-03-02T13:29:41;15.27;;;11.00;;
14799;SDS011;7491;57.750;11.970;2024-03-02T13:32:07;12.40;;;11.05;;
14799;SDS011;7491;57.750;11.970;2024-03-02T13:34:35;11.95;;;10.13;;
14799;SDS011;7491;57.750;11.970;2024-03-02T13:37:09;12.57;;;10.45;;
14799;SDS011;7491;57.750;11.970;2024-03-02T13:39:51;11.45;;;10.30;;
14799;SDS011;7491;57.750;11.970;2024-03-02T13:42:33;11.98;;;9.50;;
14799;SDS011;7491;57.750;11.970;2024-03-02T13:45:07;14.70;;;10.65;;
14799;SDS011;7491;57.750;11.970;2024-03-02T13:47:34;13.65;;;10.80;;
14799;SDS011;7491;57.750;11.970;2024-03-02T13:50:01;11.43;;;10.10;;
14799;SDS011;7491;57.750;11.970;2024-03-02T13:52:27;11.13;;;9.88;;
14799;SDS011;7491;57.750;11.970;2024-03-02T13:54:56;10.88;;;9.52;;
14799;SDS011;7491;57.750;11.970;2024-03-02T13:57:23;11.73;;;8.90;;
14799;SDS011;7491;57.750;11.970;2024-03-02T13:59:51;9.57;;;8.68;;
14799;SDS011;7491;57.750;11.970;2024-03-02T14:02:19;11.75;;;8.25;;
14799;SDS011;7491;57.750;11.970;2024-03-02T14:04:51;11.82;;;9.52;;
14799;SDS011;7491;57.750;11.970;2024-03-02T14:07:18;9.18;;;8.13;;
14799;SDS011;7491;57.750;11.970;2024-03-02T14:09:45;10.13;;;9.02;;
14799;SDS011;7491;57.750;11.970;2024-03-02T14:12:14;10.73;;;8.73;;
14799;SDS011;7491;57.750;11.970;2024-03-02T14:14:41;9.27;;;8.38;;
14799;SDS011;7491;57.750;11.970;2024-03-02T14:17:10;10.40;;;9.10;;
14799;SDS011;7491;57.750;11.970;2024-03-02T14:19:39;11.18;;;9.02;;
14799;SDS011;7491;57.750;11.970;2024-03-02T14:22:06;9.80;;;8.80;;
14799;SDS011;7491;57.750;11.970;2024-03-02T14:24:33;10.07;;;8.77;;
14799;SDS011;7491;57.750;11.970;2024-03-02T14:26:59;10.23;;;8.45;;
14799;SDS011;7491;57.750;11.970;2024-03-02T14:29:29;10.18;;;9.15;;
14799;SDS011;7491;57.750;11.970;2024-03-02T14:31:56;12.70;;;9.70;;
14799;SDS011;7491;57.750;11.970;2024-03-02T14:34:23;10.00;;;8.73;;